Weather reports worldwide

Advertisment
Kinbrace, United Kingdom (99016): temperature & dewpoint: 16.07.2019 03:00:00 - 22.07.2019 03:00:00 (BST)Kinbrace, United Kingdom (99016): wind speed: 16.07.2019 03:00:00 - 22.07.2019 03:00:00 (BST)Kinbrace, United Kingdom (99016): wind direction: 16.07.2019 03:00:00 - 22.07.2019 03:00:00 (BST)Kinbrace, United Kingdom (99016): precipitation: 16.07.2019 03:00:00 - 22.07.2019 03:00:00 (BST)
Date & Time tt [°C] td [°C] ff [km/h] ff [kn] dd rr [mm]
22.07.2019 03:00:00 16,2 14,1 22 12 SE 0,2
22.07.2019 02:00:00 16,6 13,9 24 13 ESE 0,0
22.07.2019 01:00:00 16,9 13,8 24 13 SE 0,0
22.07.2019 00:00:00 16,7 13,5 24 13 SE 0,0
21.07.2019 23:00:00 16,0 13,0 28 15 SE 0,0
21.07.2019 22:00:00 15,6 12,4 31 17 SE 0,0
21.07.2019 21:00:00 15,4 11,9 29 16 SE 0,0
21.07.2019 20:00:00 15,4 11,9 28 15 SSE 0,0
21.07.2019 19:00:00 16,2 12,3 24 13 SSE 0,0
21.07.2019 18:00:00 17,0 11,9 28 15 SSE 0,0
21.07.2019 17:00:00 17,7 11,8 26 14 S 0,0
21.07.2019 16:00:00 17,9 12,0 24 13 S 0,0
21.07.2019 15:00:00 17,7 13,2 18 10 S 0,0
21.07.2019 14:00:00 15,0 13,3 2 1 ESE 2,6
21.07.2019 13:00:00 14,8 12,7 9 5 SW 1,0
21.07.2019 12:00:00 16,9 11,7 16 9 SSW 0,0
21.07.2019 11:00:00 16,4 11,6 16 9 S 0,0
21.07.2019 10:00:00 16,0 10,9 16 9 SSW 0,0
21.07.2019 09:00:00 14,6 11,7 13 7 SSW 0,0
21.07.2019 08:00:00 13,4 12,0 9 5 S 0,0
21.07.2019 07:00:00 12,5 11,6 8 4 S 0,2
21.07.2019 06:00:00 12,6 10,7 9 5 S 0,0
21.07.2019 05:00:00 12,3 10,5 5 3 SE 0,0
21.07.2019 04:00:00 12,6 10,4 8 4 SSE 0,0
21.07.2019 03:00:00 12,8 10,7 5 3 SSW 0,0
21.07.2019 02:00:00 11,7 10,6 5 3 S 0,0
21.07.2019 01:00:00 9,3 8,6 8 4 E 0,0
21.07.2019 00:00:00 8,5 7,6 4 2 ENE 0,0
20.07.2019 23:00:00 9,4 7,9 4 2 E 0,0
20.07.2019 22:00:00 12,1 9,4 5 3 NNW 0,0
20.07.2019 21:00:00 14,1 10,3 9 5 NW 0,0
20.07.2019 20:00:00 16,4 10,3 18 10 WNW 0,0
20.07.2019 19:00:00 17,0 9,7 22 12 WNW 0,0
20.07.2019 18:00:00 17,6 10,9 22 12 NW 0,0
20.07.2019 17:00:00 15,3 12,3 22 12 NW 0,0
20.07.2019 16:00:00 14,1 12,9 26 14 WNW 0,0
20.07.2019 15:00:00 16,1 13,7 22 12 WNW 0,0
20.07.2019 14:00:00 18,1 12,7 21 11 NNW 0,0
20.07.2019 13:00:00 18,0 14,0 21 11 NW 0,0
20.07.2019 12:00:00 17,1 13,8 18 10 NW 0,0
20.07.2019 11:00:00 17,0 14,7 15 8 N 0,0
20.07.2019 10:00:00 14,6 13,6 11 6 N 0,0
20.07.2019 09:00:00 14,6 13,5 9 5 N 0,0
20.07.2019 08:00:00 14,1 13,5 9 5 NNW 0,0
20.07.2019 07:00:00 13,8 13,1 8 4 NNW 0,2
20.07.2019 06:00:00 13,7 12,8 2 1 SSE 0,8
20.07.2019 05:00:00 13,9 12,9 2 1 SE 0,6
20.07.2019 04:00:00 13,9 12,7 9 5 ESE 0,0
20.07.2019 03:00:00 13,6 12,4 11 6 SE 0,0
20.07.2019 02:00:00 13,3 12,4 9 5 SSE 0,0
20.07.2019 01:00:00 13,8 12,3 21 11 ESE 0,0
20.07.2019 00:00:00 13,7 12,2 8 4 E 0,4
19.07.2019 23:00:00 14,7 11,5 13 7 ESE 0,0
19.07.2019 22:00:00 14,9 10,9 15 8 ESE 0,0
19.07.2019 21:00:00 15,4 10,9 13 7 SE 0,0
19.07.2019 20:00:00 16,0 10,8 13 7 SE 0,0
19.07.2019 19:00:00 16,0 11,7 13 7 ESE 0,2
19.07.2019 18:00:00 18,0 10,9 4 2 ESE 0,0
19.07.2019 17:00:00 18,7 10,7 4 2 SSW 0,0
19.07.2019 16:00:00 17,8 9,8 8 4 SW 0,0
19.07.2019 15:00:00 16,5 11,3 2 1 NW 0,2
19.07.2019 14:00:00 17,5 10,2 9 5 WSW 0,0
19.07.2019 13:00:00 17,8 10,6 13 7 W 0,0
19.07.2019 12:00:00 16,6 11,5 15 8 S 0,0
19.07.2019 11:00:00 17,2 11,9 15 8 S 0,0
19.07.2019 10:00:00 16,5 12,0 11 6 SSW 0,0
19.07.2019 09:00:00 15,4 11,1 16 9 SW 0,0
19.07.2019 08:00:00 14,4 11,4 13 7 SSE 0,0
19.07.2019 07:00:00 10,9 9,4 5 3 S 0,0
19.07.2019 06:00:00 9,9 8,8 8 4 SE 0,0
19.07.2019 05:00:00 9,5 8,3 5 3 SE 0,0
19.07.2019 04:00:00 10,3 8,5 9 5 SE 0,0
19.07.2019 03:00:00 11,0 9,4 5 3 SE 0,0
19.07.2019 02:00:00 10,2 9,3 5 3 S 0,0
19.07.2019 01:00:00 10,5 9,3 9 5 S 0,0
19.07.2019 00:00:00 11,9 10,1 5 3 WSW 0,0
18.07.2019 23:00:00 11,9 10,2 8 4 SSE 0,0
18.07.2019 22:00:00 12,5 10,3 8 4 SW 0,0
18.07.2019 21:00:00 14,0 11,5 13 7 WSW 0,2
18.07.2019 20:00:00 13,8 11,1 11 6 WSW 0,0
18.07.2019 19:00:00 15,0 11,0 16 9 W 0,0
18.07.2019 18:00:00 14,5 11,5 16 9 W 0,0
18.07.2019 17:00:00 17,6 11,5 13 7 W 0,0
18.07.2019 16:00:00 14,8 12,1 9 5 SE 3,8
18.07.2019 15:00:00 15,6 10,8 16 9 WSW 0,2
18.07.2019 14:00:00 16,6 12,8 11 6 SW 0,2
18.07.2019 13:00:00 17,1 10,1 11 6 WSW 0,0
18.07.2019 12:00:00 16,8 10,8 8 4 WSW 0,0
18.07.2019 11:00:00 15,8 11,5 16 9 S 0,0
18.07.2019 10:00:00 15,2 11,6 13 7 SSW 0,0
18.07.2019 09:00:00 14,3 10,8 11 6 SSE 0,0
18.07.2019 08:00:00 13,6 12,2 8 4 S 0,0
18.07.2019 07:00:00 9,2 9,1 5 3 S 0,0
18.07.2019 06:00:00 7,1 6,7 4 2 SSE 0,0
18.07.2019 05:00:00 8,1 7,7 4 2 SE 0,0
18.07.2019 04:00:00 8,3 7,8 8 4 SE 0,0
18.07.2019 03:00:00 8,2 7,5 4 2 SSE 0,0
18.07.2019 02:00:00 8,8 7,7 8 4 SSE 0,0
18.07.2019 01:00:00 9,9 9,0 5 3 SSE 0,0
18.07.2019 00:00:00 10,5 9,0 5 3 E 0,0
17.07.2019 23:00:00 12,4 10,7 13 7 W 0,0
17.07.2019 22:00:00 14,2 13,2 11 6 W 0,2
17.07.2019 21:00:00 16,1 13,2 15 8 SE 0,0
17.07.2019 20:00:00 15,7 13,4 16 9 SE 0,0
17.07.2019 19:00:00 16,2 12,7 16 9 ESE 0,0
17.07.2019 18:00:00 16,5 13,5 16 9 SSE 0,0
17.07.2019 17:00:00 15,9 13,6 21 11 SE 0,4
17.07.2019 16:00:00 15,5 13,5 22 12 SE 0,2
17.07.2019 15:00:00 15,9 13,7 21 11 SSE 0,0
17.07.2019 14:00:00 15,4 12,8 29 16 SSE 0,2
17.07.2019 13:00:00 15,3 12,8 28 15 SSE 0,2
17.07.2019 12:00:00 16,3 13,2 22 12 S 0,0
17.07.2019 11:00:00 17,4 12,7 22 12 S 0,0
17.07.2019 10:00:00 17,0 12,8 22 12 SSE 0,0
17.07.2019 09:00:00 16,2 12,0 22 12 SE 0,0
17.07.2019 08:00:00 16,4 12,1 18 10 SE 0,0
17.07.2019 07:00:00 15,5 11,7 18 10 SE 0,0
17.07.2019 06:00:00 14,3 12,3 13 7 ESE 0,0
17.07.2019 05:00:00 12,7 11,9 5 3 SSW 0,0
17.07.2019 04:00:00 13,3 11,8 4 2 S 0,0
17.07.2019 03:00:00 13,5 11,5 8 4 SE 0,0
17.07.2019 02:00:00 13,9 11,3 15 8 ESE 0,0
17.07.2019 01:00:00 14,0 11,8 13 7 ESE 0,0
17.07.2019 00:00:00 14,2 11,8 21 11 ESE 0,0
16.07.2019 23:00:00 14,3 12,1 21 11 ESE 0,0
16.07.2019 22:00:00 14,6 12,1 21 11 ESE 0,0
16.07.2019 21:00:00 14,9 12,9 18 10 ESE 0,0
16.07.2019 20:00:00 16,2 14,0 9 5 SE 0,2
16.07.2019 19:00:00 18,8 14,9 11 6 E 0,6
16.07.2019 18:00:00 19,3 13,3 4 2 E 0,0
16.07.2019 17:00:00 19,0 13,9 9 5 SE 0,0
16.07.2019 16:00:00 18,1 13,6 5 3 NE 0,0
16.07.2019 15:00:00 18,2 13,4 16 9 NW 0,0
16.07.2019 14:00:00 19,1 12,4 9 5 W 0,0
16.07.2019 13:00:00 19,5 12,3 13 7 W 0,0
16.07.2019 12:00:00 20,1 12,5 8 4 SW 0,0
16.07.2019 11:00:00 20,3 12,7 5 3 SW 0,0
16.07.2019 10:00:00 19,3 13,5 8 4 S 0,0
16.07.2019 09:00:00 16,9 12,4 9 5 ESE 0,0
16.07.2019 08:00:00 14,5 12,1 4 2 ESE 0,0
16.07.2019 07:00:00 12,6 11,7 5 3 SSW 0,0
16.07.2019 06:00:00 11,6 10,8 4 2 S 0,0
16.07.2019 05:00:00 11,8 10,8 2 1 SE 0,0
16.07.2019 04:00:00 12,3 10,8 4 2 SE 0,0
16.07.2019 03:00:00 12,7 11,4 4 2 SSE 0,0

tt = temperature
td = dewpoint
ff = wind speed
dd = wind direction
rr = precipitation

Next stations